PWSweather.com
Personal Weather Stations
Station Observations
KKYCRABO2
Cedar Creek Lake 840 Ky. Hwy. 39 N, Crab Orchard, KY 40419

Cedar Creek Lake 840 Ky. Hwy. 39 NCrab Orchard, KY 40419

Lat: 37.4736234544238, Lon: -84.5120286941528

Elevation: 952

Station Type: TYCON Power TP1080WC Pro

http://kbweather.net/

Latest ConditionsUpdated 8:05:01 AM EST Sunday, Nov 18, 2018
Currently Today's Max Today's Min Today's Average
Temperature 40.6°F4.8°C 40.6°F4.8°C 34.5°F1.4°C 38.4°F3.6°C
Dew Point 35.6°F2.0°C 37.4°F3.0°C 32.0°F0.0°C 35.0°F1.7°C
Winds 2.2 mph S3.5 kmh S 4.0 mph -6.4 kmh - - 1.7 mph 2.7 kmh
Wind Gusts 3.1 mph5.0 kmh 5.8 mph9.3 kmh - -
Humidity 83% 93% 82% 86%
Pressure 30.56 in1034.9 mb 30.56 in1034.9 mb 30.50 in1032.8 mb -
Hour Temp Dew Point Humidity Winds Wind Gusts Pressure Precip Precip Rate Daily Precip Total
08:05 AM 40.6°F4.8°C 35.6°F2.0°C 83% 2.2 mph S3.5 kmh S 3.1 mph5.0 kmh 30.56 in1034.9 mb 0.00 in0.0 mm 0.00 in0.0 mm 0.00 in0.0 mm
08:00 AM 40.3°F4.6°C 35.6°F2.0°C 84% 2.5 mph S4.0 kmh S 3.1 mph5.0 kmh 30.56 in1034.9 mb 0.00 in0.0 mm 0.00 in0.0 mm 0.00 in0.0 mm
07:55 AM 39.9°F4.4°C 35.6°F2.0°C 84% 2.5 mph S4.0 kmh S 3.1 mph5.0 kmh 30.56 in1034.9 mb 0.00 in0.0 mm 0.00 in0.0 mm 0.00 in0.0 mm
07:50 AM 39.9°F4.4°C 35.6°F2.0°C 84% 1.1 mph S1.8 kmh S 2.9 mph4.7 kmh 30.56 in1034.9 mb 0.00 in0.0 mm 0.00 in0.0 mm 0.00 in0.0 mm
07:45 AM 39.7°F4.3°C 35.6°F2.0°C 85% 1.6 mph S2.6 kmh S 3.4 mph5.5 kmh 30.56 in1034.9 mb 0.00 in0.0 mm 0.00 in0.0 mm 0.00 in0.0 mm
07:40 AM 39.4°F4.1°C 35.6°F2.0°C 85% 2.5 mph S4.0 kmh S 3.8 mph6.1 kmh 30.56 in1034.9 mb 0.00 in0.0 mm 0.00 in0.0 mm 0.00 in0.0 mm
07:35 AM 39.2°F4.0°C 35.6°F2.0°C 84% 2.2 mph S3.5 kmh S 3.8 mph6.1 kmh 30.56 in1034.9 mb 0.00 in0.0 mm 0.00 in0.0 mm 0.00 in0.0 mm
07:30 AM 38.8°F3.8°C 33.8°F1.0°C 83% 1.6 mph SSE2.6 kmh SSE 2.7 mph4.3 kmh 30.53 in1033.9 mb 0.00 in0.0 mm 0.00 in0.0 mm 0.00 in0.0 mm
07:25 AM 38.8°F3.8°C 33.8°F1.0°C 83% Calm Calm 2.7 mph4.3 kmh 30.53 in1033.9 mb 0.00 in0.0 mm 0.00 in0.0 mm 0.00 in0.0 mm
07:20 AM 38.8°F3.8°C 33.8°F1.0°C 82% 1.1 mph SSE1.8 kmh SSE 2.2 mph3.5 kmh 30.53 in1033.9 mb 0.00 in0.0 mm 0.00 in0.0 mm 0.00 in0.0 mm
07:15 AM 38.8°F3.8°C 33.8°F1.0°C 82% Calm Calm 2.5 mph4.0 kmh 30.53 in1033.9 mb 0.00 in0.0 mm 0.00 in0.0 mm 0.00 in0.0 mm
07:10 AM 39.0°F3.9°C 33.8°F1.0°C 82% 0.9 mph SSE1.4 kmh SSE 3.1 mph5.0 kmh 30.53 in1033.9 mb 0.00 in0.0 mm 0.00 in0.0 mm 0.00 in0.0 mm
07:05 AM 39.2°F4.0°C 33.8°F1.0°C 82% 1.3 mph SE2.1 kmh SE 3.1 mph5.0 kmh 30.53 in1033.9 mb 0.00 in0.0 mm 0.00 in0.0 mm 0.00 in0.0 mm
07:00 AM 39.4°F4.1°C 33.8°F1.0°C 82% Calm Calm 3.4 mph5.5 kmh 30.53 in1033.9 mb 0.00 in0.0 mm 0.00 in0.0 mm 0.00 in0.0 mm
06:55 AM 39.6°F4.2°C 35.6°F2.0°C 82% 2.5 mph SE4.0 kmh SE 3.6 mph5.8 kmh 30.53 in1033.9 mb 0.00 in0.0 mm 0.00 in0.0 mm 0.00 in0.0 mm
06:50 AM 39.7°F4.3°C 35.6°F2.0°C 82% 2.5 mph SE4.0 kmh SE 3.8 mph6.1 kmh 30.53 in1033.9 mb 0.00 in0.0 mm 0.00 in0.0 mm 0.00 in0.0 mm
06:45 AM 39.7°F4.3°C 35.6°F2.0°C 82% 2.7 mph SSE4.3 kmh SSE 3.8 mph6.1 kmh 30.53 in1033.9 mb 0.00 in0.0 mm 0.00 in0.0 mm 0.00 in0.0 mm
06:40 AM 39.9°F4.4°C 35.6°F2.0°C 82% 1.3 mph SSE2.1 kmh SSE 4.0 mph6.4 kmh 30.53 in1033.9 mb 0.00 in0.0 mm 0.00 in0.0 mm 0.00 in0.0 mm
06:35 AM 39.9°F4.4°C 35.6°F2.0°C 82% 2.9 mph SSE4.7 kmh SSE 4.0 mph6.4 kmh 30.53 in1033.9 mb 0.00 in0.0 mm 0.00 in0.0 mm 0.00 in0.0 mm
06:30 AM 40.1°F4.5°C 35.6°F2.0°C 82% 2.5 mph S4.0 kmh S 3.6 mph5.8 kmh 30.53 in1033.9 mb 0.00 in0.0 mm 0.00 in0.0 mm 0.00 in0.0 mm
06:25 AM 40.3°F4.6°C 35.6°F2.0°C 83% 2.0 mph S3.2 kmh S 3.4 mph5.5 kmh 30.53 in1033.9 mb 0.00 in0.0 mm 0.00 in0.0 mm 0.00 in0.0 mm
06:20 AM 40.1°F4.5°C 35.6°F2.0°C 83% 2.7 mph SSE4.3 kmh SSE 4.0 mph6.4 kmh 30.53 in1033.9 mb 0.00 in0.0 mm 0.00 in0.0 mm 0.00 in0.0 mm
06:15 AM 40.1°F4.5°C 35.6°F2.0°C 83% 2.9 mph SSE4.7 kmh SSE 4.3 mph6.9 kmh 30.50 in1032.8 mb 0.00 in0.0 mm 0.00 in0.0 mm 0.00 in0.0 mm
06:10 AM 39.9°F4.4°C 35.6°F2.0°C 83% 3.4 mph SSE5.5 kmh SSE 4.3 mph6.9 kmh 30.50 in1032.8 mb 0.00 in0.0 mm 0.00 in0.0 mm 0.00 in0.0 mm
06:05 AM 39.7°F4.3°C 35.6°F2.0°C 83% 2.9 mph SSE4.7 kmh SSE 3.8 mph6.1 kmh 30.50 in1032.8 mb 0.00 in0.0 mm 0.00 in0.0 mm 0.00 in0.0 mm
06:00 AM 39.7°F4.3°C 35.6°F2.0°C 83% 2.0 mph SSE3.2 kmh SSE 3.8 mph6.1 kmh 30.50 in1032.8 mb 0.00 in0.0 mm 0.00 in0.0 mm 0.00 in0.0 mm
05:55 AM 39.6°F4.2°C 35.6°F2.0°C 83% 1.6 mph SE2.6 kmh SE 3.4 mph5.5 kmh 30.50 in1032.8 mb 0.00 in0.0 mm 0.00 in0.0 mm 0.00 in0.0 mm
05:50 AM 39.7°F4.3°C 35.6°F2.0°C 83% 2.0 mph SE3.2 kmh SE 4.0 mph6.4 kmh 30.50 in1032.8 mb 0.00 in0.0 mm 0.00 in0.0 mm 0.00 in0.0 mm
05:45 AM 39.9°F4.4°C 35.6°F2.0°C 83% 1.3 mph SSE2.1 kmh SSE 4.0 mph6.4 kmh 30.50 in1032.8 mb 0.00 in0.0 mm 0.00 in0.0 mm 0.00 in0.0 mm
05:40 AM 39.7°F4.3°C 35.6°F2.0°C 83% 2.7 mph SSE4.3 kmh SSE 4.3 mph6.9 kmh 30.50 in1032.8 mb 0.00 in0.0 mm 0.00 in0.0 mm 0.00 in0.0 mm
05:35 AM 39.7°F4.3°C 35.6°F2.0°C 83% 3.6 mph SSE5.8 kmh SSE 4.3 mph6.9 kmh 30.50 in1032.8 mb 0.00 in0.0 mm 0.00 in0.0 mm 0.00 in0.0 mm
05:30 AM 39.7°F4.3°C 35.6°F2.0°C 83% 1.3 mph SSE2.1 kmh SSE 2.9 mph4.7 kmh 30.50 in1032.8 mb 0.00 in0.0 mm 0.00 in0.0 mm 0.00 in0.0 mm
05:25 AM 39.7°F4.3°C 35.6°F2.0°C 83% 2.0 mph SE3.2 kmh SE 3.4 mph5.5 kmh 30.50 in1032.8 mb 0.00 in0.0 mm 0.00 in0.0 mm 0.00 in0.0 mm
05:20 AM 39.9°F4.4°C 35.6°F2.0°C 83% 1.1 mph SE1.8 kmh SE 4.9 mph7.9 kmh 30.50 in1032.8 mb 0.00 in0.0 mm 0.00 in0.0 mm 0.00 in0.0 mm
05:15 AM 40.1°F4.5°C 35.6°F2.0°C 83% 3.1 mph SE5.0 kmh SE 5.8 mph9.3 kmh 30.53 in1033.9 mb 0.00 in0.0 mm 0.00 in0.0 mm 0.00 in0.0 mm
05:10 AM 40.1°F4.5°C 35.6°F2.0°C 83% 4.0 mph SE6.4 kmh SE 5.8 mph9.3 kmh 30.53 in1033.9 mb 0.00 in0.0 mm 0.00 in0.0 mm 0.00 in0.0 mm
05:05 AM 40.1°F4.5°C 35.6°F2.0°C 83% 3.6 mph SE5.8 kmh SE 5.8 mph9.3 kmh 30.53 in1033.9 mb 0.00 in0.0 mm 0.00 in0.0 mm 0.00 in0.0 mm
05:00 AM 39.9°F4.4°C 35.6°F2.0°C 83% 3.8 mph SE6.1 kmh SE 4.9 mph7.9 kmh 30.56 in1034.9 mb 0.00 in0.0 mm 0.00 in0.0 mm 0.00 in0.0 mm
04:55 AM 39.9°F4.4°C 35.6°F2.0°C 83% 3.1 mph SE5.0 kmh SE 4.9 mph7.9 kmh 30.56 in1034.9 mb 0.00 in0.0 mm 0.00 in0.0 mm 0.00 in0.0 mm
04:50 AM 40.1°F4.5°C 35.6°F2.0°C 83% 3.1 mph SE5.0 kmh SE 4.9 mph7.9 kmh 30.56 in1034.9 mb 0.00 in0.0 mm 0.00 in0.0 mm 0.00 in0.0 mm
04:45 AM 40.1°F4.5°C 35.6°F2.0°C 83% 3.1 mph SSE5.0 kmh SSE 4.0 mph6.4 kmh 30.50 in1032.8 mb 0.00 in0.0 mm 0.00 in0.0 mm 0.00 in0.0 mm
04:40 AM 40.1°F4.5°C 35.6°F2.0°C 82% 3.6 mph SSE5.8 kmh SSE 4.0 mph6.4 kmh 30.50 in1032.8 mb 0.00 in0.0 mm 0.00 in0.0 mm 0.00 in0.0 mm
04:35 AM 40.1°F4.5°C 35.6°F2.0°C 82% 3.1 mph SE5.0 kmh SE 4.0 mph6.4 kmh 30.50 in1032.8 mb 0.00 in0.0 mm 0.00 in0.0 mm 0.00 in0.0 mm
04:30 AM 40.3°F4.6°C 35.6°F2.0°C 83% 2.9 mph SSE4.7 kmh SSE 4.9 mph7.9 kmh 30.50 in1032.8 mb 0.00 in0.0 mm 0.00 in0.0 mm 0.00 in0.0 mm
04:25 AM 40.3°F4.6°C 35.6°F2.0°C 83% 2.9 mph SSE4.7 kmh SSE 4.9 mph7.9 kmh 30.50 in1032.8 mb 0.00 in0.0 mm 0.00 in0.0 mm 0.00 in0.0 mm
04:20 AM 40.3°F4.6°C 35.6°F2.0°C 83% 2.9 mph S4.7 kmh S 3.8 mph6.1 kmh 30.50 in1032.8 mb 0.00 in0.0 mm 0.00 in0.0 mm 0.00 in0.0 mm
04:15 AM 40.3°F4.6°C 35.6°F2.0°C 84% 2.2 mph S3.5 kmh S 3.8 mph6.1 kmh 30.53 in1033.9 mb 0.00 in0.0 mm 0.00 in0.0 mm 0.00 in0.0 mm
04:10 AM 40.3°F4.6°C 35.6°F2.0°C 84% 2.2 mph S3.5 kmh S 3.8 mph6.1 kmh 30.53 in1033.9 mb 0.00 in0.0 mm 0.00 in0.0 mm 0.00 in0.0 mm
04:05 AM 40.1°F4.5°C 37.4°F3.0°C 85% 2.5 mph S4.0 kmh S 3.8 mph6.1 kmh 30.53 in1033.9 mb 0.00 in0.0 mm 0.00 in0.0 mm 0.00 in0.0 mm
04:00 AM 40.1°F4.5°C 37.4°F3.0°C 85% 2.2 mph S3.5 kmh S 3.8 mph6.1 kmh 30.50 in1032.8 mb 0.00 in0.0 mm 0.00 in0.0 mm 0.00 in0.0 mm
03:55 AM 39.9°F4.4°C 35.6°F2.0°C 86% 3.1 mph SSE5.0 kmh SSE 4.0 mph6.4 kmh 30.50 in1032.8 mb 0.00 in0.0 mm 0.00 in0.0 mm 0.00 in0.0 mm
03:50 AM 39.6°F4.2°C 37.4°F3.0°C 87% 2.7 mph SSE4.3 kmh SSE 4.0 mph6.4 kmh 30.50 in1032.8 mb 0.00 in0.0 mm 0.00 in0.0 mm 0.00 in0.0 mm
03:45 AM 39.4°F4.1°C 35.6°F2.0°C 87% 2.9 mph SE4.7 kmh SE 4.0 mph6.4 kmh 30.53 in1033.9 mb 0.00 in0.0 mm 0.00 in0.0 mm 0.00 in0.0 mm
03:40 AM 39.2°F4.0°C 35.6°F2.0°C 88% 3.1 mph SE5.0 kmh SE 4.9 mph7.9 kmh 30.53 in1033.9 mb 0.00 in0.0 mm 0.00 in0.0 mm 0.00 in0.0 mm
03:35 AM 39.0°F3.9°C 35.6°F2.0°C 88% 3.4 mph SSE5.5 kmh SSE 4.9 mph7.9 kmh 30.53 in1033.9 mb 0.00 in0.0 mm 0.00 in0.0 mm 0.00 in0.0 mm
03:30 AM 39.0°F3.9°C 37.4°F3.0°C 89% 3.4 mph SSE5.5 kmh SSE 4.9 mph7.9 kmh 30.50 in1032.8 mb 0.00 in0.0 mm 0.00 in0.0 mm 0.00 in0.0 mm
03:25 AM 38.8°F3.8°C 35.6°F2.0°C 90% 2.7 mph SSE4.3 kmh SSE 3.8 mph6.1 kmh 30.50 in1032.8 mb 0.00 in0.0 mm 0.00 in0.0 mm 0.00 in0.0 mm
03:20 AM 38.7°F3.7°C 37.4°F3.0°C 91% 2.2 mph SSE3.5 kmh SSE 3.8 mph6.1 kmh 30.50 in1032.8 mb 0.00 in0.0 mm 0.00 in0.0 mm 0.00 in0.0 mm
03:15 AM 38.7°F3.7°C 37.4°F3.0°C 92% 2.5 mph SSE4.0 kmh SSE 3.6 mph5.8 kmh 30.50 in1032.8 mb 0.00 in0.0 mm 0.00 in0.0 mm 0.00 in0.0 mm
03:10 AM 38.5°F3.6°C 37.4°F3.0°C 92% 2.7 mph SSE4.3 kmh SSE 3.6 mph5.8 kmh 30.50 in1032.8 mb 0.00 in0.0 mm 0.00 in0.0 mm 0.00 in0.0 mm
03:05 AM 38.3°F3.5°C 37.4°F3.0°C 93% 2.7 mph SSE4.3 kmh SSE 3.8 mph6.1 kmh 30.50 in1032.8 mb 0.00 in0.0 mm 0.00 in0.0 mm 0.00 in0.0 mm
03:00 AM 38.3°F3.5°C 37.4°F3.0°C 93% 2.7 mph SSE4.3 kmh SSE 3.8 mph6.1 kmh 30.50 in1032.8 mb 0.00 in0.0 mm 0.00 in0.0 mm 0.00 in0.0 mm
02:55 AM 37.9°F3.3°C 35.6°F2.0°C 92% 2.5 mph SSE4.0 kmh SSE 3.1 mph5.0 kmh 30.50 in1032.8 mb 0.00 in0.0 mm 0.00 in0.0 mm 0.00 in0.0 mm
02:50 AM 37.8°F3.2°C 35.6°F2.0°C 92% 2.0 mph SSE3.2 kmh SSE 3.1 mph5.0 kmh 30.50 in1032.8 mb 0.00 in0.0 mm 0.00 in0.0 mm 0.00 in0.0 mm
02:45 AM 37.6°F3.1°C 35.6°F2.0°C 92% 2.5 mph SSE4.0 kmh SSE 2.9 mph4.7 kmh 30.53 in1033.9 mb 0.00 in0.0 mm 0.00 in0.0 mm 0.00 in0.0 mm
02:40 AM 37.4°F3.0°C 35.6°F2.0°C 91% Calm Calm -- 30.53 in1033.9 mb 0.00 in0.0 mm 0.00 in0.0 mm 0.00 in0.0 mm
02:35 AM 37.4°F3.0°C 35.6°F2.0°C 92% Calm Calm 2.0 mph3.2 kmh 30.53 in1033.9 mb 0.00 in0.0 mm 0.00 in0.0 mm 0.00 in0.0 mm
02:30 AM 37.0°F2.8°C 35.6°F2.0°C 92% Calm Calm 2.5 mph4.0 kmh 30.53 in1033.9 mb 0.00 in0.0 mm 0.00 in0.0 mm 0.00 in0.0 mm
02:25 AM 36.9°F2.7°C 35.6°F2.0°C 91% 2.0 mph S3.2 kmh S 2.5 mph4.0 kmh 30.53 in1033.9 mb 0.00 in0.0 mm 0.00 in0.0 mm 0.00 in0.0 mm
02:20 AM 36.7°F2.6°C 35.6°F2.0°C 91% Calm Calm 2.7 mph4.3 kmh 30.53 in1033.9 mb 0.00 in0.0 mm 0.00 in0.0 mm 0.00 in0.0 mm
02:15 AM 36.5°F2.5°C 33.8°F1.0°C 90% 1.6 mph S2.6 kmh S 2.7 mph4.3 kmh 30.53 in1033.9 mb 0.00 in0.0 mm 0.00 in0.0 mm 0.00 in0.0 mm
02:10 AM 35.6°F2.0°C 33.8°F1.0°C 89% 1.6 mph S2.6 kmh S 2.7 mph4.3 kmh 30.53 in1033.9 mb 0.00 in0.0 mm 0.00 in0.0 mm 0.00 in0.0 mm
02:05 AM 34.9°F1.6°C 32.0°F0.0°C 87% 2.0 mph S3.2 kmh S 2.5 mph4.0 kmh 30.53 in1033.9 mb 0.00 in0.0 mm 0.00 in0.0 mm 0.00 in0.0 mm
02:00 AM 34.5°F1.4°C 32.0°F0.0°C 87% Calm Calm -- 30.53 in1033.9 mb 0.00 in0.0 mm 0.00 in0.0 mm 0.00 in0.0 mm
01:55 AM 34.7°F1.5°C 32.0°F0.0°C 86% Calm Calm -- 30.53 in1033.9 mb 0.00 in0.0 mm 0.00 in0.0 mm 0.00 in0.0 mm
01:50 AM 34.9°F1.6°C 32.0°F0.0°C 87% Calm Calm -- 30.53 in1033.9 mb 0.00 in0.0 mm 0.00 in0.0 mm 0.00 in0.0 mm
01:45 AM 35.2°F1.8°C 32.0°F0.0°C 87% Calm Calm -- 30.50 in1032.8 mb 0.00 in0.0 mm 0.00 in0.0 mm 0.00 in0.0 mm
01:40 AM 35.4°F1.9°C 32.0°F0.0°C 87% Calm Calm -- 30.50 in1032.8 mb 0.00 in0.0 mm 0.00 in0.0 mm 0.00 in0.0 mm
01:35 AM 35.6°F2.0°C 33.8°F1.0°C 87% Calm Calm -- 30.50 in1032.8 mb 0.00 in0.0 mm 0.00 in0.0 mm 0.00 in0.0 mm
01:30 AM 36.0°F2.2°C 33.8°F1.0°C 87% Calm Calm -- 30.53 in1033.9 mb 0.00 in0.0 mm 0.00 in0.0 mm 0.00 in0.0 mm
01:25 AM 36.1°F2.3°C 33.8°F1.0°C 87% Calm Calm -- 30.53 in1033.9 mb 0.00 in0.0 mm 0.00 in0.0 mm 0.00 in0.0 mm
01:20 AM 36.5°F2.5°C 33.8°F1.0°C 87% Calm Calm -- 30.53 in1033.9 mb 0.00 in0.0 mm 0.00 in0.0 mm 0.00 in0.0 mm
01:15 AM 36.9°F2.7°C 33.8°F1.0°C 88% Calm Calm -- 30.50 in1032.8 mb 0.00 in0.0 mm 0.00 in0.0 mm 0.00 in0.0 mm
01:10 AM 37.2°F2.9°C 35.6°F2.0°C 89% Calm Calm 1.1 mph1.8 kmh 30.50 in1032.8 mb 0.00 in0.0 mm 0.00 in0.0 mm 0.00 in0.0 mm
01:05 AM 37.2°F2.9°C 35.6°F2.0°C 89% 0.9 mph S1.4 kmh S 1.1 mph1.8 kmh 30.50 in1032.8 mb 0.00 in0.0 mm 0.00 in0.0 mm 0.00 in0.0 mm
01:00 AM 36.9°F2.7°C 33.8°F1.0°C 88% Calm Calm -- 30.50 in1032.8 mb 0.00 in0.0 mm 0.00 in0.0 mm 0.00 in0.0 mm
12:55 AM 36.9°F2.7°C 33.8°F1.0°C 88% Calm Calm 2.7 mph4.3 kmh 30.53 in1033.9 mb 0.00 in0.0 mm 0.00 in0.0 mm 0.00 in0.0 mm
12:50 AM 36.7°F2.6°C 33.8°F1.0°C 88% Calm Calm 2.7 mph4.3 kmh 30.53 in1033.9 mb 0.00 in0.0 mm 0.00 in0.0 mm 0.00 in0.0 mm
12:45 AM 36.0°F2.2°C 32.0°F0.0°C 86% 2.0 mph S3.2 kmh S 2.7 mph4.3 kmh 30.53 in1033.9 mb 0.00 in0.0 mm 0.00 in0.0 mm 0.00 in0.0 mm
12:40 AM 35.6°F2.0°C 32.0°F0.0°C 86% Calm Calm -- 30.53 in1033.9 mb 0.00 in0.0 mm 0.00 in0.0 mm 0.00 in0.0 mm
12:35 AM 35.8°F2.1°C 32.0°F0.0°C 86% Calm Calm -- 30.53 in1033.9 mb 0.00 in0.0 mm 0.00 in0.0 mm 0.00 in0.0 mm
12:30 AM 36.0°F2.2°C 32.0°F0.0°C 86% Calm Calm -- 30.53 in1033.9 mb 0.00 in0.0 mm 0.00 in0.0 mm 0.00 in0.0 mm
12:25 AM 36.1°F2.3°C 33.8°F1.0°C 86% Calm Calm -- 30.53 in1033.9 mb 0.00 in0.0 mm 0.00 in0.0 mm 0.00 in0.0 mm
12:20 AM 36.3°F2.4°C 33.8°F1.0°C 86% Calm Calm -- 30.53 in1033.9 mb 0.00 in0.0 mm 0.00 in0.0 mm 0.00 in0.0 mm
12:15 AM 36.3°F2.4°C 33.8°F1.0°C 86% Calm Calm -- 30.53 in1033.9 mb 0.00 in0.0 mm 0.00 in0.0 mm 0.00 in0.0 mm
12:10 AM 36.5°F2.5°C 33.8°F1.0°C 86% Calm Calm -- 30.53 in1033.9 mb 0.00 in0.0 mm 0.00 in0.0 mm 0.00 in0.0 mm
12:05 AM 36.5°F2.5°C 33.8°F1.0°C 85% Calm Calm -- 30.53 in1033.9 mb 0.00 in0.0 mm 0.00 in0.0 mm 0.00 in0.0 mm
12:00 AM 36.1°F2.3°C 33.8°F1.0°C 85% Calm Calm -- 30.53 in1033.9 mb 0.00 in0.0 mm 0.00 in0.0 mm 0.00 in0.0 mm